sensor_id;sensor_type;location;lat;lon;timestamp;P1;durP1;ratioP1;P2;durP2;ratioP2
10731;SDS011;5417;42.686;23.244;2022-12-11T00:02:28;14.67;;;13.23;;
10731;SDS011;5417;42.686;23.244;2022-12-11T00:04:55;13.57;;;12.17;;
10731;SDS011;5417;42.686;23.244;2022-12-11T00:07:22;13.87;;;11.63;;
10731;SDS011;5417;42.686;23.244;2022-12-11T00:09:48;16.10;;;14.27;;
10731;SDS011;5417;42.686;23.244;2022-12-11T00:12:15;17.20;;;13.40;;
10731;SDS011;5417;42.686;23.244;2022-12-11T00:14:42;14.13;;;12.07;;
10731;SDS011;5417;42.686;23.244;2022-12-11T00:17:09;15.23;;;12.50;;
10731;SDS011;5417;42.686;23.244;2022-12-11T00:19:37;15.33;;;12.90;;
10731;SDS011;5417;42.686;23.244;2022-12-11T00:22:04;15.27;;;12.00;;
10731;SDS011;5417;42.686;23.244;2022-12-11T00:24:32;12.07;;;10.60;;
10731;SDS011;5417;42.686;23.244;2022-12-11T00:26:59;12.57;;;10.33;;
10731;SDS011;5417;42.686;23.244;2022-12-11T00:29:26;9.17;;;8.27;;
10731;SDS011;5417;42.686;23.244;2022-12-11T00:31:53;12.73;;;10.33;;
10731;SDS011;5417;42.686;23.244;2022-12-11T00:34:20;10.67;;;9.13;;
10731;SDS011;5417;42.686;23.244;2022-12-11T00:36:48;12.60;;;9.87;;
10731;SDS011;5417;42.686;23.244;2022-12-11T00:39:15;12.40;;;10.90;;
10731;SDS011;5417;42.686;23.244;2022-12-11T00:41:42;13.77;;;11.60;;
10731;SDS011;5417;42.686;23.244;2022-12-11T00:44:09;12.40;;;11.20;;
10731;SDS011;5417;42.686;23.244;2022-12-11T00:46:36;11.60;;;10.40;;
10731;SDS011;5417;42.686;23.244;2022-12-11T00:49:03;11.33;;;10.23;;
10731;SDS011;5417;42.686;23.244;2022-12-11T00:51:30;12.73;;;10.37;;
10731;SDS011;5417;42.686;23.244;2022-12-11T00:53:58;15.57;;;11.63;;
10731;SDS011;5417;42.686;23.244;2022-12-11T00:56:25;13.53;;;11.33;;
10731;SDS011;5417;42.686;23.244;2022-12-11T00:58:52;11.10;;;10.03;;
10731;SDS011;5417;42.686;23.244;2022-12-11T01:01:20;11.10;;;10.10;;
10731;SDS011;5417;42.686;23.244;2022-12-11T01:03:50;11.03;;;9.93;;
10731;SDS011;5417;42.686;23.244;2022-12-11T01:06:18;10.10;;;9.10;;
10731;SDS011;5417;42.686;23.244;2022-12-11T01:08:46;10.87;;;8.77;;
10731;SDS011;5417;42.686;23.244;2022-12-11T01:11:35;8.93;;;7.80;;
10731;SDS011;5417;42.686;23.244;2022-12-11T01:14:01;8.17;;;7.13;;
10731;SDS011;5417;42.686;23.244;2022-12-11T01:16:28;8.47;;;7.03;;
10731;SDS011;5417;42.686;23.244;2022-12-11T01:18:55;8.47;;;6.80;;
10731;SDS011;5417;42.686;23.244;2022-12-11T01:21:22;5.57;;;5.00;;
10731;SDS011;5417;42.686;23.244;2022-12-11T01:23:49;7.23;;;4.90;;
10731;SDS011;5417;42.686;23.244;2022-12-11T01:26:17;6.03;;;4.23;;
10731;SDS011;5417;42.686;23.244;2022-12-11T01:28:47;2.70;;;2.10;;
10731;SDS011;5417;42.686;23.244;2022-12-11T01:31:15;2.97;;;1.87;;
10731;SDS011;5417;42.686;23.244;2022-12-11T01:33:43;2.23;;;1.93;;
10731;SDS011;5417;42.686;23.244;2022-12-11T01:36:11;1.30;;;1.20;;
10731;SDS011;5417;42.686;23.244;2022-12-11T01:38:40;1.00;;;0.90;;
10731;SDS011;5417;42.686;23.244;2022-12-11T01:41:07;0.90;;;0.67;;
10731;SDS011;5417;42.686;23.244;2022-12-11T01:43:34;0.40;;;0.30;;
10731;SDS011;5417;42.686;23.244;2022-12-11T01:46:18;0.50;;;0.30;;
10731;SDS011;5417;42.686;23.244;2022-12-11T01:48:45;0.50;;;0.40;;
10731;SDS011;5417;42.686;23.244;2022-12-11T01:51:12;0.20;;;0.20;;
10731;SDS011;5417;42.686;23.244;2022-12-11T01:53:42;0.53;;;0.50;;
10731;SDS011;5417;42.686;23.244;2022-12-11T01:56:14;1.50;;;0.50;;
10731;SDS011;5417;42.686;23.244;2022-12-11T01:58:42;0.30;;;0.20;;
10731;SDS011;5417;42.686;23.244;2022-12-11T02:01:13;0.60;;;0.33;;
10731;SDS011;5417;42.686;23.244;2022-12-11T02:03:45;0.20;;;0.20;;
10731;SDS011;5417;42.686;23.244;2022-12-11T02:06:29;0.40;;;0.40;;
10731;SDS011;5417;42.686;23.244;2022-12-11T02:08:59;0.50;;;0.50;;
10731;SDS011;5417;42.686;23.244;2022-12-11T02:11:28;2.67;;;0.30;;
10731;SDS011;5417;42.686;23.244;2022-12-11T02:14:08;3.57;;;0.50;;
10731;SDS011;5417;42.686;23.244;2022-12-11T02:16:44;0.47;;;0.40;;
10731;SDS011;5417;42.686;23.244;2022-12-11T02:19:24;0.30;;;0.30;;
10731;SDS011;5417;42.686;23.244;2022-12-11T02:22:05;3.63;;;0.40;;
10731;SDS011;5417;42.686;23.244;2022-12-11T02:24:43;1.90;;;0.33;;
10731;SDS011;5417;42.686;23.244;2022-12-11T02:27:28;2.63;;;0.43;;
10731;SDS011;5417;42.686;23.244;2022-12-11T02:30:04;1.63;;;0.50;;
10731;SDS011;5417;42.686;23.244;2022-12-11T02:32:34;0.50;;;0.40;;
10731;SDS011;5417;42.686;23.244;2022-12-11T02:35:06;1.23;;;0.80;;
10731;SDS011;5417;42.686;23.244;2022-12-11T02:37:41;1.53;;;1.07;;
10731;SDS011;5417;42.686;23.244;2022-12-11T02:40:11;1.70;;;0.90;;
10731;SDS011;5417;42.686;23.244;2022-12-11T02:42:42;1.17;;;1.07;;
10731;SDS011;5417;42.686;23.244;2022-12-11T02:45:12;1.73;;;1.07;;
10731;SDS011;5417;42.686;23.244;2022-12-11T02:47:39;1.20;;;0.97;;
10731;SDS011;5417;42.686;23.244;2022-12-11T02:50:10;1.13;;;1.03;;
10731;SDS011;5417;42.686;23.244;2022-12-11T02:52:42;1.20;;;1.10;;
10731;SDS011;5417;42.686;23.244;2022-12-11T02:55:11;0.80;;;0.80;;
10731;SDS011;5417;42.686;23.244;2022-12-11T02:57:43;0.60;;;0.60;;
10731;SDS011;5417;42.686;23.244;2022-12-11T03:00:14;0.80;;;0.80;;
10731;SDS011;5417;42.686;23.244;2022-12-11T03:02:42;0.80;;;0.80;;
10731;SDS011;5417;42.686;23.244;2022-12-11T03:05:10;1.83;;;0.80;;
10731;SDS011;5417;42.686;23.244;2022-12-11T03:07:39;0.60;;;0.60;;
10731;SDS011;5417;42.686;23.244;2022-12-11T03:10:08;1.37;;;0.50;;
10731;SDS011;5417;42.686;23.244;2022-12-11T03:12:39;0.50;;;0.50;;
10731;SDS011;5417;42.686;23.244;2022-12-11T03:15:10;0.63;;;0.53;;
10731;SDS011;5417;42.686;23.244;2022-12-11T03:17:44;0.77;;;0.53;;
10731;SDS011;5417;42.686;23.244;2022-12-11T03:20:25;1.10;;;0.70;;
10731;SDS011;5417;42.686;23.244;2022-12-11T03:23:00;0.97;;;0.60;;
10731;SDS011;5417;42.686;23.244;2022-12-11T03:25:34;0.87;;;0.83;;
10731;SDS011;5417;42.686;23.244;2022-12-11T03:28:11;0.80;;;0.80;;
10731;SDS011;5417;42.686;23.244;2022-12-11T03:30:41;2.97;;;1.17;;
10731;SDS011;5417;42.686;23.244;2022-12-11T03:33:13;1.30;;;0.70;;
10731;SDS011;5417;42.686;23.244;2022-12-11T03:35:46;0.80;;;0.80;;
10731;SDS011;5417;42.686;23.244;2022-12-11T03:38:17;1.10;;;1.00;;
10731;SDS011;5417;42.686;23.244;2022-12-11T03:40:49;0.87;;;0.87;;
10731;SDS011;5417;42.686;23.244;2022-12-11T03:43:20;1.13;;;0.87;;
10731;SDS011;5417;42.686;23.244;2022-12-11T03:45:47;1.47;;;1.30;;
10731;SDS011;5417;42.686;23.244;2022-12-11T03:48:17;1.50;;;0.90;;
10731;SDS011;5417;42.686;23.244;2022-12-11T03:50:46;1.10;;;1.00;;
10731;SDS011;5417;42.686;23.244;2022-12-11T03:53:14;0.83;;;0.83;;
10731;SDS011;5417;42.686;23.244;2022-12-11T03:55:42;2.60;;;0.83;;
10731;SDS011;5417;42.686;23.244;2022-12-11T03:58:09;5.33;;;0.97;;
10731;SDS011;5417;42.686;23.244;2022-12-11T04:00:36;1.10;;;0.80;;
10731;SDS011;5417;42.686;23.244;2022-12-11T04:03:05;1.70;;;1.00;;
10731;SDS011;5417;42.686;23.244;2022-12-11T04:05:47;1.70;;;1.10;;
10731;SDS011;5417;42.686;23.244;2022-12-11T04:08:16;0.80;;;0.70;;
10731;SDS011;5417;42.686;23.244;2022-12-11T04:10:44;1.50;;;1.20;;
10731;SDS011;5417;42.686;23.244;2022-12-11T04:13:12;1.40;;;1.30;;
10731;SDS011;5417;42.686;23.244;2022-12-11T04:15:39;2.87;;;1.30;;
10731;SDS011;5417;42.686;23.244;2022-12-11T04:18:05;2.30;;;1.27;;
10731;SDS011;5417;42.686;23.244;2022-12-11T04:20:53;2.70;;;1.30;;
10731;SDS011;5417;42.686;23.244;2022-12-11T04:23:37;4.10;;;1.00;;
10731;SDS011;5417;42.686;23.244;2022-12-11T04:26:21;2.07;;;1.10;;
10731;SDS011;5417;42.686;23.244;2022-12-11T04:28:48;1.90;;;1.70;;
10731;SDS011;5417;42.686;23.244;2022-12-11T04:31:16;1.43;;;1.33;;
10731;SDS011;5417;42.686;23.244;2022-12-11T04:33:44;1.67;;;1.13;;
10731;SDS011;5417;42.686;23.244;2022-12-11T04:36:13;2.37;;;1.30;;
10731;SDS011;5417;42.686;23.244;2022-12-11T04:38:40;3.27;;;1.10;;
10731;SDS011;5417;42.686;23.244;2022-12-11T04:41:08;3.10;;;1.30;;
10731;SDS011;5417;42.686;23.244;2022-12-11T04:43:36;1.83;;;1.20;;
10731;SDS011;5417;42.686;23.244;2022-12-11T04:46:07;4.37;;;1.33;;
10731;SDS011;5417;42.686;23.244;2022-12-11T04:48:36;1.07;;;0.87;;
10731;SDS011;5417;42.686;23.244;2022-12-11T04:51:04;2.37;;;1.27;;
10731;SDS011;5417;42.686;23.244;2022-12-11T04:53:33;1.73;;;1.13;;
10731;SDS011;5417;42.686;23.244;2022-12-11T04:56:00;1.67;;;1.20;;
10731;SDS011;5417;42.686;23.244;2022-12-11T04:58:30;1.60;;;1.17;;
10731;SDS011;5417;42.686;23.244;2022-12-11T05:00:57;0.83;;;0.80;;
10731;SDS011;5417;42.686;23.244;2022-12-11T05:03:24;2.23;;;1.30;;
10731;SDS011;5417;42.686;23.244;2022-12-11T05:05:52;3.10;;;1.33;;
10731;SDS011;5417;42.686;23.244;2022-12-11T05:08:19;1.97;;;1.20;;
10731;SDS011;5417;42.686;23.244;2022-12-11T05:10:54;3.90;;;1.67;;
10731;SDS011;5417;42.686;23.244;2022-12-11T05:13:22;4.63;;;2.00;;
10731;SDS011;5417;42.686;23.244;2022-12-11T05:15:50;2.73;;;1.30;;
10731;SDS011;5417;42.686;23.244;2022-12-11T05:18:17;3.60;;;1.60;;
10731;SDS011;5417;42.686;23.244;2022-12-11T05:20:44;3.10;;;1.80;;
10731;SDS011;5417;42.686;23.244;2022-12-11T05:23:19;6.13;;;1.67;;
10731;SDS011;5417;42.686;23.244;2022-12-11T05:25:50;3.17;;;2.00;;
10731;SDS011;5417;42.686;23.244;2022-12-11T05:28:19;2.50;;;1.40;;
10731;SDS011;5417;42.686;23.244;2022-12-11T05:30:46;3.77;;;1.50;;
10731;SDS011;5417;42.686;23.244;2022-12-11T05:33:13;3.53;;;2.00;;
10731;SDS011;5417;42.686;23.244;2022-12-11T05:35:45;3.03;;;1.53;;
10731;SDS011;5417;42.686;23.244;2022-12-11T05:38:13;2.83;;;1.70;;
10731;SDS011;5417;42.686;23.244;2022-12-11T05:40:40;4.03;;;1.80;;
10731;SDS011;5417;42.686;23.244;2022-12-11T05:43:07;2.30;;;1.60;;
10731;SDS011;5417;42.686;23.244;2022-12-11T05:45:35;4.20;;;1.70;;
10731;SDS011;5417;42.686;23.244;2022-12-11T05:48:03;4.67;;;1.73;;
10731;SDS011;5417;42.686;23.244;2022-12-11T05:50:30;3.27;;;2.00;;
10731;SDS011;5417;42.686;23.244;2022-12-11T05:52:57;3.50;;;2.03;;
10731;SDS011;5417;42.686;23.244;2022-12-11T05:55:23;4.90;;;1.70;;
10731;SDS011;5417;42.686;23.244;2022-12-11T05:57:52;4.87;;;1.90;;
10731;SDS011;5417;42.686;23.244;2022-12-11T06:00:19;5.77;;;2.17;;
10731;SDS011;5417;42.686;23.244;2022-12-11T06:02:47;3.37;;;2.07;;
10731;SDS011;5417;42.686;23.244;2022-12-11T06:05:14;4.33;;;1.70;;
10731;SDS011;5417;42.686;23.244;2022-12-11T06:07:41;2.20;;;1.40;;
10731;SDS011;5417;42.686;23.244;2022-12-11T06:10:08;2.40;;;1.37;;
10731;SDS011;5417;42.686;23.244;2022-12-11T06:12:36;1.43;;;1.30;;
10731;SDS011;5417;42.686;23.244;2022-12-11T06:15:03;8.37;;;1.60;;
10731;SDS011;5417;42.686;23.244;2022-12-11T06:17:30;1.40;;;1.30;;
10731;SDS011;5417;42.686;23.244;2022-12-11T06:19:58;2.43;;;1.30;;
10731;SDS011;5417;42.686;23.244;2022-12-11T06:22:25;2.83;;;1.90;;
10731;SDS011;5417;42.686;23.244;2022-12-11T06:24:58;3.73;;;1.80;;
10731;SDS011;5417;42.686;23.244;2022-12-11T06:28:28;3.00;;;2.00;;
10731;SDS011;5417;42.686;23.244;2022-12-11T06:30:42;3.90;;;2.03;;
10731;SDS011;5417;42.686;23.244;2022-12-11T06:33:10;4.90;;;1.90;;
10731;SDS011;5417;42.686;23.244;2022-12-11T06:35:39;2.73;;;1.83;;
10731;SDS011;5417;42.686;23.244;2022-12-11T06:38:05;3.93;;;1.80;;
10731;SDS011;5417;42.686;23.244;2022-12-11T06:40:32;8.57;;;6.33;;
10731;SDS011;5417;42.686;23.244;2022-12-11T06:42:59;9.97;;;8.97;;
10731;SDS011;5417;42.686;23.244;2022-12-11T06:45:26;5.30;;;4.80;;
10731;SDS011;5417;42.686;23.244;2022-12-11T06:47:53;2.50;;;1.67;;
10731;SDS011;5417;42.686;23.244;2022-12-11T06:50:23;2.77;;;1.90;;
10731;SDS011;5417;42.686;23.244;2022-12-11T06:52:51;4.27;;;1.60;;
10731;SDS011;5417;42.686;23.244;2022-12-11T06:55:20;2.83;;;2.10;;
10731;SDS011;5417;42.686;23.244;2022-12-11T06:57:47;3.23;;;2.40;;
10731;SDS011;5417;42.686;23.244;2022-12-11T07:00:15;2.77;;;2.30;;
10731;SDS011;5417;42.686;23.244;2022-12-11T07:02:42;3.10;;;2.10;;
10731;SDS011;5417;42.686;23.244;2022-12-11T07:05:09;4.77;;;2.37;;
10731;SDS011;5417;42.686;23.244;2022-12-11T07:07:36;10.67;;;7.60;;
10731;SDS011;5417;42.686;23.244;2022-12-11T07:10:05;9.30;;;6.50;;
10731;SDS011;5417;42.686;23.244;2022-12-11T07:12:33;4.07;;;2.40;;
10731;SDS011;5417;42.686;23.244;2022-12-11T07:15:00;4.83;;;2.70;;
10731;SDS011;5417;42.686;23.244;2022-12-11T07:17:29;2.37;;;1.83;;
10731;SDS011;5417;42.686;23.244;2022-12-11T07:19:58;3.67;;;1.50;;
10731;SDS011;5417;42.686;23.244;2022-12-11T07:22:25;4.40;;;2.00;;
10731;SDS011;5417;42.686;23.244;2022-12-11T07:24:54;3.10;;;1.93;;
10731;SDS011;5417;42.686;23.244;2022-12-11T07:27:22;6.30;;;1.67;;
10731;SDS011;5417;42.686;23.244;2022-12-11T07:32:20;2.53;;;2.10;;
10731;SDS011;5417;42.686;23.244;2022-12-11T07:34:47;2.83;;;1.90;;
10731;SDS011;5417;42.686;23.244;2022-12-11T07:37:17;7.53;;;6.60;;
10731;SDS011;5417;42.686;23.244;2022-12-11T07:39:44;6.63;;;4.77;;
10731;SDS011;5417;42.686;23.244;2022-12-11T07:42:13;12.93;;;11.30;;
10731;SDS011;5417;42.686;23.244;2022-12-11T07:44:41;3.40;;;2.00;;
10731;SDS011;5417;42.686;23.244;2022-12-11T07:47:08;5.10;;;2.80;;
10731;SDS011;5417;42.686;23.244;2022-12-11T07:49:35;2.70;;;2.40;;
10731;SDS011;5417;42.686;23.244;2022-12-11T07:52:02;4.40;;;2.27;;
10731;SDS011;5417;42.686;23.244;2022-12-11T07:54:29;2.93;;;2.00;;
10731;SDS011;5417;42.686;23.244;2022-12-11T07:56:56;6.23;;;2.40;;
10731;SDS011;5417;42.686;23.244;2022-12-11T07:59:23;2.80;;;1.80;;
10731;SDS011;5417;42.686;23.244;2022-12-11T08:04:30;5.70;;;2.30;;
10731;SDS011;5417;42.686;23.244;2022-12-11T08:06:57;4.30;;;2.23;;
10731;SDS011;5417;42.686;23.244;2022-12-11T08:09:24;5.17;;;2.00;;
10731;SDS011;5417;42.686;23.244;2022-12-11T08:11:53;2.73;;;2.27;;
10731;SDS011;5417;42.686;23.244;2022-12-11T08:14:20;13.30;;;7.73;;
10731;SDS011;5417;42.686;23.244;2022-12-11T08:16:51;4.60;;;2.33;;
10731;SDS011;5417;42.686;23.244;2022-12-11T08:19:21;3.13;;;2.07;;
10731;SDS011;5417;42.686;23.244;2022-12-11T08:21:48;3.60;;;2.47;;
10731;SDS011;5417;42.686;23.244;2022-12-11T08:24:15;2.87;;;1.80;;
10731;SDS011;5417;42.686;23.244;2022-12-11T08:26:46;3.60;;;2.37;;
10731;SDS011;5417;42.686;23.244;2022-12-11T08:29:13;3.17;;;2.20;;
10731;SDS011;5417;42.686;23.244;2022-12-11T08:31:40;2.17;;;1.50;;
10731;SDS011;5417;42.686;23.244;2022-12-11T08:34:07;3.30;;;1.77;;
10731;SDS011;5417;42.686;23.244;2022-12-11T08:36:39;3.03;;;1.80;;
10731;SDS011;5417;42.686;23.244;2022-12-11T08:39:06;1.93;;;1.50;;
10731;SDS011;5417;42.686;23.244;2022-12-11T08:41:34;1.77;;;1.57;;
10731;SDS011;5417;42.686;23.244;2022-12-11T08:44:12;3.67;;;2.67;;
10731;SDS011;5417;42.686;23.244;2022-12-11T08:46:41;2.60;;;2.23;;
10731;SDS011;5417;42.686;23.244;2022-12-11T08:49:13;7.57;;;6.17;;
10731;SDS011;5417;42.686;23.244;2022-12-11T08:51:41;9.60;;;7.30;;
10731;SDS011;5417;42.686;23.244;2022-12-11T08:54:08;3.27;;;2.30;;
10731;SDS011;5417;42.686;23.244;2022-12-11T08:56:40;4.30;;;2.43;;
10731;SDS011;5417;42.686;23.244;2022-12-11T08:59:09;2.10;;;1.90;;
10731;SDS011;5417;42.686;23.244;2022-12-11T09:01:36;2.70;;;2.50;;
10731;SDS011;5417;42.686;23.244;2022-12-11T09:04:03;3.17;;;2.10;;
10731;SDS011;5417;42.686;23.244;2022-12-11T09:06:33;3.13;;;2.40;;
10731;SDS011;5417;42.686;23.244;2022-12-11T09:09:13;2.17;;;2.00;;
10731;SDS011;5417;42.686;23.244;2022-12-11T09:11:42;4.17;;;2.23;;
10731;SDS011;5417;42.686;23.244;2022-12-11T09:14:12;2.40;;;2.20;;
10731;SDS011;5417;42.686;23.244;2022-12-11T09:16:40;2.10;;;1.90;;
10731;SDS011;5417;42.686;23.244;2022-12-11T09:19:10;3.60;;;2.23;;
10731;SDS011;5417;42.686;23.244;2022-12-11T09:21:38;2.63;;;2.10;;
10731;SDS011;5417;42.686;23.244;2022-12-11T09:24:07;4.80;;;2.57;;
10731;SDS011;5417;42.686;23.244;2022-12-11T09:26:37;4.43;;;2.37;;
10731;SDS011;5417;42.686;23.244;2022-12-11T09:29:05;3.83;;;2.43;;
10731;SDS011;5417;42.686;23.244;2022-12-11T09:31:35;2.63;;;2.10;;
10731;SDS011;5417;42.686;23.244;2022-12-11T09:34:08;4.60;;;2.40;;
10731;SDS011;5417;42.686;23.244;2022-12-11T09:36:37;5.03;;;2.40;;
10731;SDS011;5417;42.686;23.244;2022-12-11T09:39:09;7.20;;;2.80;;
10731;SDS011;5417;42.686;23.244;2022-12-11T09:41:39;3.67;;;2.37;;
10731;SDS011;5417;42.686;23.244;2022-12-11T09:44:19;4.53;;;3.80;;
10731;SDS011;5417;42.686;23.244;2022-12-11T09:46:55;3.87;;;2.33;;
10731;SDS011;5417;42.686;23.244;2022-12-11T09:49:31;1.97;;;1.87;;
10731;SDS011;5417;42.686;23.244;2022-12-11T09:52:10;13.30;;;11.37;;
10731;SDS011;5417;42.686;23.244;2022-12-11T09:54:42;5.30;;;4.90;;
10731;SDS011;5417;42.686;23.244;2022-12-11T09:57:18;3.03;;;1.90;;
10731;SDS011;5417;42.686;23.244;2022-12-11T09:59:59;1.70;;;1.60;;
10731;SDS011;5417;42.686;23.244;2022-12-11T10:02:48;2.00;;;1.90;;
10731;SDS011;5417;42.686;23.244;2022-12-11T10:05:45;2.83;;;2.27;;
10731;SDS011;5417;42.686;23.244;2022-12-11T10:08:16;1.60;;;1.50;;
10731;SDS011;5417;42.686;23.244;2022-12-11T10:10:56;2.03;;;1.47;;
10731;SDS011;5417;42.686;23.244;2022-12-11T10:13:39;1.40;;;1.30;;
10731;SDS011;5417;42.686;23.244;2022-12-11T10:16:17;2.83;;;1.97;;
10731;SDS011;5417;42.686;23.244;2022-12-11T10:18:52;5.20;;;1.70;;
10731;SDS011;5417;42.686;23.244;2022-12-11T10:21:21;3.73;;;1.50;;
10731;SDS011;5417;42.686;23.244;2022-12-11T10:23:49;2.83;;;1.50;;
10731;SDS011;5417;42.686;23.244;2022-12-11T10:26:24;3.03;;;2.10;;
10731;SDS011;5417;42.686;23.244;2022-12-11T10:29:10;2.77;;;1.37;;
10731;SDS011;5417;42.686;23.244;2022-12-11T10:31:41;2.33;;;1.70;;
10731;SDS011;5417;42.686;23.244;2022-12-11T10:34:19;1.43;;;1.23;;
10731;SDS011;5417;42.686;23.244;2022-12-11T10:37:02;2.70;;;1.60;;
10731;SDS011;5417;42.686;23.244;2022-12-11T10:39:36;3.23;;;3.03;;
10731;SDS011;5417;42.686;23.244;2022-12-11T10:42:12;3.90;;;2.13;;
10731;SDS011;5417;42.686;23.244;2022-12-11T10:44:55;4.47;;;4.17;;
10731;SDS011;5417;42.686;23.244;2022-12-11T10:47:28;2.20;;;2.03;;
10731;SDS011;5417;42.686;23.244;2022-12-11T10:50:03;1.60;;;1.50;;
10731;SDS011;5417;42.686;23.244;2022-12-11T10:52:31;1.83;;;1.67;;
10731;SDS011;5417;42.686;23.244;2022-12-11T10:55:03;1.93;;;1.80;;
10731;SDS011;5417;42.686;23.244;2022-12-11T10:57:34;3.37;;;1.83;;
10731;SDS011;5417;42.686;23.244;2022-12-11T11:00:07;2.97;;;2.57;;
10731;SDS011;5417;42.686;23.244;2022-12-11T11:02:57;1.50;;;1.40;;
10731;SDS011;5417;42.686;23.244;2022-12-11T11:05:29;1.70;;;1.57;;
10731;SDS011;5417;42.686;23.244;2022-12-11T11:10:51;2.17;;;1.47;;
10731;SDS011;5417;42.686;23.244;2022-12-11T11:16:01;1.67;;;1.57;;
10731;SDS011;5417;42.686;23.244;2022-12-11T11:18:34;1.90;;;1.80;;
10731;SDS011;5417;42.686;23.244;2022-12-11T11:21:04;2.20;;;2.00;;
10731;SDS011;5417;42.686;23.244;2022-12-11T11:26:12;1.57;;;1.50;;
10731;SDS011;5417;42.686;23.244;2022-12-11T11:28:46;1.70;;;1.60;;
10731;SDS011;5417;42.686;23.244;2022-12-11T11:31:16;1.93;;;1.83;;
10731;SDS011;5417;42.686;23.244;2022-12-11T11:33:49;2.37;;;1.60;;
10731;SDS011;5417;42.686;23.244;2022-12-11T11:36:26;2.07;;;1.80;;
10731;SDS011;5417;42.686;23.244;2022-12-11T11:39:13;1.80;;;1.70;;
10731;SDS011;5417;42.686;23.244;2022-12-11T11:41:54;2.10;;;1.90;;
10731;SDS011;5417;42.686;23.244;2022-12-11T11:44:30;5.50;;;2.93;;
10731;SDS011;5417;42.686;23.244;2022-12-11T11:47:04;2.57;;;1.80;;
10731;SDS011;5417;42.686;23.244;2022-12-11T11:49:43;3.07;;;1.80;;
10731;SDS011;5417;42.686;23.244;2022-12-11T11:52:16;1.90;;;1.80;;
10731;SDS011;5417;42.686;23.244;2022-12-11T11:54:54;2.40;;;1.70;;
10731;SDS011;5417;42.686;23.244;2022-12-11T11:57:31;2.00;;;1.80;;
10731;SDS011;5417;42.686;23.244;2022-12-11T12:00:13;3.03;;;2.13;;
10731;SDS011;5417;42.686;23.244;2022-12-11T12:02:46;2.83;;;1.67;;
10731;SDS011;5417;42.686;23.244;2022-12-11T12:05:15;3.93;;;2.37;;
10731;SDS011;5417;42.686;23.244;2022-12-11T12:07:50;1.93;;;1.80;;
10731;SDS011;5417;42.686;23.244;2022-12-11T12:10:26;3.77;;;1.97;;
10731;SDS011;5417;42.686;23.244;2022-12-11T12:12:59;1.70;;;1.60;;
10731;SDS011;5417;42.686;23.244;2022-12-11T12:15:34;3.53;;;1.87;;
10731;SDS011;5417;42.686;23.244;2022-12-11T12:18:12;2.23;;;2.10;;
10731;SDS011;5417;42.686;23.244;2022-12-11T12:20:57;2.00;;;1.90;;
10731;SDS011;5417;42.686;23.244;2022-12-11T12:23:40;2.13;;;1.97;;
10731;SDS011;5417;42.686;23.244;2022-12-11T12:26:22;1.87;;;1.70;;
10731;SDS011;5417;42.686;23.244;2022-12-11T12:28:57;1.40;;;1.40;;
10731;SDS011;5417;42.686;23.244;2022-12-11T12:31:51;1.57;;;1.50;;
10731;SDS011;5417;42.686;23.244;2022-12-11T12:34:36;1.70;;;1.60;;
10731;SDS011;5417;42.686;23.244;2022-12-11T12:37:12;1.50;;;1.40;;
10731;SDS011;5417;42.686;23.244;2022-12-11T12:39:52;2.17;;;1.97;;
10731;SDS011;5417;42.686;23.244;2022-12-11T12:42:34;3.33;;;1.40;;
10731;SDS011;5417;42.686;23.244;2022-12-11T12:45:15;1.70;;;1.60;;
10731;SDS011;5417;42.686;23.244;2022-12-11T12:47:54;1.37;;;1.37;;
10731;SDS011;5417;42.686;23.244;2022-12-11T12:50:23;2.57;;;1.37;;
10731;SDS011;5417;42.686;23.244;2022-12-11T12:52:58;1.50;;;1.40;;
10731;SDS011;5417;42.686;23.244;2022-12-11T12:55:27;1.60;;;1.50;;
10731;SDS011;5417;42.686;23.244;2022-12-11T12:57:56;1.77;;;1.67;;
10731;SDS011;5417;42.686;23.244;2022-12-11T13:00:26;1.60;;;1.50;;
10731;SDS011;5417;42.686;23.244;2022-12-11T13:02:58;1.73;;;1.60;;
10731;SDS011;5417;42.686;23.244;2022-12-11T13:05:29;1.63;;;1.57;;
10731;SDS011;5417;42.686;23.244;2022-12-11T13:08:00;1.50;;;1.40;;
10731;SDS011;5417;42.686;23.244;2022-12-11T13:10:30;1.60;;;1.50;;
10731;SDS011;5417;42.686;23.244;2022-12-11T13:12:58;1.20;;;1.20;;
10731;SDS011;5417;42.686;23.244;2022-12-11T13:15:36;1.30;;;1.30;;
10731;SDS011;5417;42.686;23.244;2022-12-11T13:21:01;1.40;;;1.30;;
10731;SDS011;5417;42.686;23.244;2022-12-11T13:23:48;1.10;;;1.10;;
10731;SDS011;5417;42.686;23.244;2022-12-11T13:26:26;1.20;;;1.20;;
10731;SDS011;5417;42.686;23.244;2022-12-11T13:28:53;1.67;;;1.00;;
10731;SDS011;5417;42.686;23.244;2022-12-11T13:31:25;1.43;;;0.93;;
10731;SDS011;5417;42.686;23.244;2022-12-11T13:33:57;1.30;;;1.20;;
10731;SDS011;5417;42.686;23.244;2022-12-11T13:36:35;1.37;;;1.27;;
10731;SDS011;5417;42.686;23.244;2022-12-11T13:39:05;1.20;;;1.20;;
10731;SDS011;5417;42.686;23.244;2022-12-11T13:41:43;1.93;;;1.20;;
10731;SDS011;5417;42.686;23.244;2022-12-11T13:44:14;0.90;;;0.90;;
10731;SDS011;5417;42.686;23.244;2022-12-11T13:46:46;2.63;;;2.43;;
10731;SDS011;5417;42.686;23.244;2022-12-11T13:49:17;1.43;;;1.40;;
10731;SDS011;5417;42.686;23.244;2022-12-11T13:51:53;2.00;;;1.90;;
10731;SDS011;5417;42.686;23.244;2022-12-11T13:54:21;2.33;;;2.13;;
10731;SDS011;5417;42.686;23.244;2022-12-11T13:56:55;2.10;;;1.90;;
10731;SDS011;5417;42.686;23.244;2022-12-11T13:59:25;1.40;;;1.40;;
10731;SDS011;5417;42.686;23.244;2022-12-11T14:01:54;1.87;;;1.77;;
10731;SDS011;5417;42.686;23.244;2022-12-11T14:04:25;1.77;;;1.67;;
10731;SDS011;5417;42.686;23.244;2022-12-11T14:06:55;1.30;;;1.30;;
10731;SDS011;5417;42.686;23.244;2022-12-11T14:09:24;2.43;;;2.33;;
10731;SDS011;5417;42.686;23.244;2022-12-11T14:11:53;2.07;;;1.97;;
10731;SDS011;5417;42.686;23.244;2022-12-11T14:14:24;2.40;;;2.20;;
10731;SDS011;5417;42.686;23.244;2022-12-11T14:16:58;1.67;;;1.57;;
10731;SDS011;5417;42.686;23.244;2022-12-11T14:19:26;1.30;;;1.30;;
10731;SDS011;5417;42.686;23.244;2022-12-11T14:21:59;1.30;;;1.30;;
10731;SDS011;5417;42.686;23.244;2022-12-11T14:24:27;2.83;;;2.63;;
10731;SDS011;5417;42.686;23.244;2022-12-11T14:26:55;4.13;;;3.83;;
10731;SDS011;5417;42.686;23.244;2022-12-11T14:29:26;2.00;;;1.90;;
10731;SDS011;5417;42.686;23.244;2022-12-11T14:31:55;1.00;;;1.00;;
10731;SDS011;5417;42.686;23.244;2022-12-11T14:34:26;1.00;;;1.00;;
10731;SDS011;5417;42.686;23.244;2022-12-11T14:36:55;2.03;;;1.20;;
10731;SDS011;5417;42.686;23.244;2022-12-11T14:39:26;1.40;;;1.30;;
10731;SDS011;5417;42.686;23.244;2022-12-11T14:41:59;1.60;;;1.50;;
10731;SDS011;5417;42.686;23.244;2022-12-11T14:44:36;2.23;;;2.13;;
10731;SDS011;5417;42.686;23.244;2022-12-11T14:47:10;1.50;;;1.40;;
10731;SDS011;5417;42.686;23.244;2022-12-11T14:49:43;1.87;;;1.77;;
10731;SDS011;5417;42.686;23.244;2022-12-11T14:52:18;0.90;;;0.90;;
10731;SDS011;5417;42.686;23.244;2022-12-11T15:11:32;1.23;;;1.23;;
10731;SDS011;5417;42.686;23.244;2022-12-11T15:14:00;1.40;;;1.30;;
10731;SDS011;5417;42.686;23.244;2022-12-11T15:16:30;1.07;;;1.07;;
10731;SDS011;5417;42.686;23.244;2022-12-11T15:19:02;0.90;;;0.90;;
10731;SDS011;5417;42.686;23.244;2022-12-11T15:21:30;0.90;;;0.90;;
10731;SDS011;5417;42.686;23.244;2022-12-11T15:23:59;0.90;;;0.90;;
10731;SDS011;5417;42.686;23.244;2022-12-11T15:26:33;8.20;;;6.53;;
10731;SDS011;5417;42.686;23.244;2022-12-11T15:29:03;1.77;;;1.67;;
10731;SDS011;5417;42.686;23.244;2022-12-11T15:31:32;1.00;;;1.00;;
10731;SDS011;5417;42.686;23.244;2022-12-11T15:34:00;0.80;;;0.80;;
10731;SDS011;5417;42.686;23.244;2022-12-11T15:36:30;1.60;;;1.50;;
10731;SDS011;5417;42.686;23.244;2022-12-11T15:38:59;1.37;;;1.37;;
10731;SDS011;5417;42.686;23.244;2022-12-11T15:41:26;2.10;;;2.00;;
10731;SDS011;5417;42.686;23.244;2022-12-11T15:43:59;2.43;;;2.20;;